Time;durP1;ratioP1;P1;durP2;ratioP2;P2;SDS_P1;SDS_P2;PMS_P1;PMS_P2;Temp;Humidity;BMP_temperature;BMP_pressure;BME280_temperature;BME280_humidity;BME280_pressure;Samples;Min_cycle;Max_cycle;Signal;HPM_P1;HPM_P2
2022/12/04 00:07:50;;;;;;;5.35;1.20;;;;;;;23.00;39.99;101707.44;21075931;28;20048;-63
2022/12/04 00:17:51;;;;;;;2.78;1.17;;;;;;;23.05;39.66;101740.97;21071862;28;20403;-63
2022/12/04 00:27:52;;;;;;;4.95;0.98;;;;;;;23.02;39.64;101783.41;21071446;28;20062;-63
2022/12/04 00:37:59;;;;;;;5.97;1.70;;;;;;;23.02;39.90;101826.09;21057893;28;20028;-65
2022/12/04 00:48:01;;;;;;;4.28;1.40;;;;;;;23.00;39.42;101853.47;21068991;28;20040;-64
2022/12/04 00:58:03;;;;;;;6.85;1.20;;;;;;;22.98;39.68;101882.75;21059116;28;20511;-67
2022/12/04 01:08:04;;;;;;;2.38;1.20;;;;;;;22.77;39.71;101895.72;21073064;28;20052;-66
2022/12/04 01:18:06;;;;;;;13.32;1.98;;;;;;;22.93;39.82;101941.34;21049091;28;20052;-65
2022/12/04 01:28:07;;;;;;;4.32;1.27;;;;;;;22.90;39.64;101970.63;21063435;28;20043;-63
2022/12/04 01:38:08;;;;;;;4.93;1.30;;;;;;;22.88;39.43;101967.25;21072555;28;20039;-64
2022/12/04 01:48:23;;;;;;;6.53;1.17;;;;;;;22.91;39.26;101982.63;21072690;28;20047;-64
2022/12/04 01:58:30;;;;;;;16.05;2.10;;;;;;;22.81;39.45;101973.03;21063866;28;20033;-65
2022/12/04 02:08:36;;;;;;;29.67;2.43;;;;;;;22.76;39.95;101983.34;21050874;28;20070;-66
2022/12/04 02:18:56;;;;;;;81.30;6.32;;;;;;;22.95;39.30;102022.84;21049686;28;20071;-63
2022/12/04 02:29:08;;;;;;;16.90;1.85;;;;;;;22.97;39.37;102049.41;21048089;28;20043;-63
2022/12/04 02:39:18;;;;;;;16.95;1.67;;;;;;;23.06;39.61;102069.28;21057738;28;20172;-63
2022/12/04 02:49:30;;;;;;;9.55;1.48;;;;;;;23.11;39.08;102088.84;21048214;28;20121;-63
2022/12/04 02:59:39;;;;;;;7.88;1.73;;;;;;;23.17;39.39;102104.53;21068396;28;20491;-65
2022/12/04 03:09:47;;;;;;;27.98;2.65;;;;;;;23.19;39.58;102124.66;21072479;28;20113;-64
2022/12/04 03:19:56;;;;;;;12.87;1.77;;;;;;;23.22;39.08;102129.69;21052228;28;20843;-65
2022/12/04 03:30:04;;;;;;;8.00;1.90;;;;;;;23.22;38.99;102146.44;21067189;28;20048;-65
2022/12/04 03:40:27;;;;;;;7.73;1.30;;;;;;;23.16;38.72;102158.69;21066801;28;20048;-65
2022/12/04 03:50:38;;;;;;;7.15;1.40;;;;;;;23.19;38.78;102174.94;21070444;28;20040;-65
2022/12/04 04:00:42;;;;;;;7.10;1.35;;;;;;;23.18;39.11;102187.19;21057154;28;20083;-63
2022/12/04 04:10:48;;;;;;;5.25;1.00;;;;;;;23.16;38.81;102181.03;21061830;28;20036;-61
2022/12/04 04:31:27;;;;;;;8.05;1.20;;;;;;;23.06;38.71;102181.78;21064323;28;20039;-62
2022/12/04 04:41:41;;;;;;;5.40;0.73;;;;;;;22.98;39.04;102161.91;21067485;28;20381;-63
2022/12/04 04:51:44;;;;;;;3.75;1.13;;;;;;;23.10;38.97;102173.75;21060459;28;20097;-63
2022/12/04 05:01:46;;;;;;;6.60;1.25;;;;;;;23.06;39.01;102158.63;21050486;28;20498;-62
2022/12/04 05:11:54;;;;;;;5.00;0.98;;;;;;;23.05;38.78;102145.78;21069372;28;20051;-62
2022/12/04 05:21:56;;;;;;;2.22;0.75;;;;;;;22.98;38.75;102139.56;21062670;28;20035;-62
2022/12/04 05:31:57;;;;;;;5.18;1.05;;;;;;;22.96;38.64;102151.00;21072111;28;20081;-62
2022/12/04 05:41:58;;;;;;;4.95;0.80;;;;;;;22.98;38.98;102157.16;21068925;28;20121;-63
2022/12/04 05:52:01;;;;;;;2.45;0.70;;;;;;;22.98;38.60;102159.09;21067473;28;20085;-63
2022/12/04 06:02:02;;;;;;;4.93;1.13;;;;;;;22.95;38.83;102168.00;21047790;28;20137;-63
2022/12/04 06:12:04;;;;;;;2.80;0.82;;;;;;;22.92;38.41;102179.72;21071464;28;20089;-63
2022/12/04 06:22:05;;;;;;;2.40;0.90;;;;;;;22.78;38.33;102182.91;21059462;28;20113;-62
2022/12/04 06:32:06;;;;;;;7.20;1.05;;;;;;;22.87;38.21;102204.75;21071850;28;20048;-63
2022/12/04 06:42:10;;;;;;;1.88;0.75;;;;;;;22.82;38.15;102198.00;21091171;28;20064;-63
2022/12/04 06:52:12;;;;;;;2.88;0.80;;;;;;;22.79;37.74;102217.22;21078174;28;20040;-64
2022/12/04 07:02:13;;;;;;;5.03;0.90;;;;;;;22.71;37.56;102224.09;21084760;28;20039;-63
2022/12/04 07:12:14;;;;;;;1.63;0.70;;;;;;;22.65;37.12;102219.59;21072732;28;20048;-63
2022/12/04 07:22:16;;;;;;;1.42;0.70;;;;;;;22.62;37.01;102225.69;21085416;28;20470;-63
2022/12/04 07:32:17;;;;;;;2.28;0.82;;;;;;;22.56;36.68;102224.78;21069976;28;20044;-63
2022/12/04 07:42:19;;;;;;;3.30;1.05;;;;;;;20.42;37.46;101892.34;21080436;28;20044;-63
2022/12/04 07:52:20;;;;;;;1.13;0.65;;;;;;;22.55;37.52;102242.63;21082979;28;20048;-62
2022/12/04 08:02:22;;;;;;;1.23;0.70;;;;;;;22.50;37.10;102231.41;21064154;28;20048;-63
2022/12/04 08:12:26;;;;;;;1.60;0.80;;;;;;;22.54;36.96;102234.50;21051108;28;20118;-63
2022/12/04 08:22:27;;;;;;;0.68;0.45;;;;;;;22.56;36.96;102230.38;21077833;28;20039;-63
2022/12/04 08:32:29;;;;;;;0.88;0.70;;;;;;;22.57;36.67;102234.00;21071688;28;20043;-63
2022/12/04 08:42:30;;;;;;;1.50;0.80;;;;;;;22.55;36.62;102236.22;21076578;28;20036;-63
2022/12/04 08:52:31;;;;;;;1.13;0.60;;;;;;;22.54;36.39;102251.25;21079075;28;20044;-63
2022/12/04 09:02:33;;;;;;;0.80;0.80;;;;;;;22.52;36.55;102259.03;21068698;28;20052;-62
2022/12/04 09:12:34;;;;;;;0.77;0.65;;;;;;;22.52;36.32;102256.25;21061917;28;20024;-63
2022/12/04 09:22:36;;;;;;;1.15;0.60;;;;;;;22.50;36.22;102283.59;21075608;28;20048;-63
2022/12/04 09:32:37;;;;;;;1.00;0.60;;;;;;;22.45;36.44;102295.50;21074276;28;20040;-63
2022/12/04 09:43:20;;;;;;;2.08;0.60;;;;;;;22.41;36.33;102307.44;21087805;28;20052;-63
2022/12/04 09:53:27;;;;;;;0.75;0.60;;;;;;;22.47;36.50;102317.56;21138652;28;20146;-63
2022/12/04 10:03:30;;;;;;;0.80;0.57;;;;;;;22.28;36.22;102281.63;21076206;28;20445;-62
2022/12/04 10:14:08;;;;;;;1.63;0.60;;;;;;;22.39;36.18;102309.63;21087939;28;20032;-62
2022/12/04 10:24:34;;;;;;;0.90;0.57;;;;;;;22.38;36.33;102314.38;21089605;28;20067;-64
2022/12/04 10:34:36;;;;;;;1.00;0.50;;;;;;;22.38;36.46;102313.53;21088879;28;20070;-62
2022/12/04 10:44:40;;;;;;;0.50;0.50;;;;;;;22.38;36.05;102319.13;21089207;28;20048;-63
2022/12/04 10:54:57;;;;;;;0.40;0.40;;;;;;;22.36;36.32;102318.50;21087006;28;20040;-63
2022/12/04 11:05:23;;;;;;;0.90;0.60;;;;;;;22.28;36.17;102329.03;21085829;28;20437;-63
2022/12/04 11:15:24;;;;;;;0.38;0.35;;;;;;;22.27;35.96;102307.81;21072290;28;20040;-62
2022/12/04 11:25:34;;;;;;;0.63;0.63;;;;;;;22.24;35.93;102305.53;21085794;28;20399;-63
2022/12/04 11:35:36;;;;;;;0.50;0.50;;;;;;;22.28;35.83;102326.22;21078308;28;20040;-62
2022/12/04 11:45:37;;;;;;;0.45;0.40;;;;;;;22.20;35.96;102309.94;21081704;28;20048;-63
2022/12/04 11:56:01;;;;;;;0.60;0.50;;;;;;;22.20;35.83;102320.25;21089807;28;20090;-62
2022/12/04 12:06:26;;;;;;;0.70;0.50;;;;;;;22.20;35.77;102323.03;21044234;28;20572;-62
2022/12/04 12:16:48;;;;;;;0.70;0.40;;;;;;;22.17;35.91;102315.19;21093024;28;20050;-63
2022/12/04 12:26:50;;;;;;;0.75;0.40;;;;;;;22.17;35.85;102329.13;21160070;28;20444;-63
2022/12/04 12:36:52;;;;;;;3.75;0.73;;;;;;;22.17;35.75;102337.47;21103376;28;20044;-65
2022/12/04 12:47:16;;;;;;;2.00;0.60;;;;;;;22.17;36.20;102334.69;21077151;28;20116;-63
2022/12/04 12:57:25;;;;;;;11.70;1.10;;;;;;;22.30;36.98;102335.16;21042451;28;20048;-66
2022/12/04 13:07:41;;;;;;;10.65;0.80;;;;;;;22.39;36.64;102345.91;21058879;28;20047;-65
2022/12/04 13:17:48;;;;;;;0.95;0.60;;;;;;;22.47;36.78;102362.19;21054865;28;20036;-64
2022/12/04 13:28:11;;;;;;;1.42;0.75;;;;;;;22.51;36.87;102374.53;21056126;28;20040;-65
2022/12/04 13:38:38;;;;;;;1.65;0.77;;;;;;;22.56;36.81;102363.44;21061875;28;20077;-63
2022/12/04 13:48:42;;;;;;;2.95;0.60;;;;;;;22.67;36.54;102351.28;21045629;28;20155;-62
2022/12/04 13:58:43;;;;;;;2.78;0.93;;;;;;;22.78;37.02;102361.50;21054395;28;20472;-63
2022/12/04 14:08:53;;;;;;;1.95;0.70;;;;;;;22.80;36.46;102370.44;21060245;28;20039;-63
2022/12/04 14:19:00;;;;;;;1.00;0.85;;;;;;;22.91;36.30;102374.28;21065984;28;20081;-64
2022/12/04 14:29:25;;;;;;;10.90;1.10;;;;;;;22.96;36.75;102371.53;21048184;28;20044;-64
2022/12/04 14:39:45;;;;;;;37.88;2.80;;;;;;;22.95;37.01;102335.47;21056495;28;20051;-65
2022/12/04 14:50:16;;;;;;;3.53;0.80;;;;;;;22.99;36.75;102345.88;21046722;28;20582;-65
2022/12/04 15:00:21;;;;;;;1.85;0.90;;;;;;;22.99;36.88;102315.16;21064924;28;20560;-63
2022/12/04 15:20:47;;;;;;;5.57;1.00;;;;;;;23.03;36.51;102321.06;21076869;28;20047;-64
2022/12/04 15:30:54;;;;;;;4.55;0.90;;;;;;;23.05;36.11;102319.72;21058625;28;20048;-62
2022/12/04 15:40:59;;;;;;;4.35;0.98;;;;;;;23.01;34.98;102296.22;21065381;28;20364;-64
2022/12/04 15:51:05;;;;;;;2.72;0.80;;;;;;;23.01;35.41;102296.22;21055900;28;20040;-65
2022/12/04 16:01:11;;;;;;;1.92;0.82;;;;;;;23.01;35.38;102250.72;21045460;28;20047;-64
2022/12/04 16:11:19;;;;;;;1.00;0.80;;;;;;;22.98;35.65;102212.97;21071723;28;20495;-63
2022/12/04 16:21:29;;;;;;;9.70;1.20;;;;;;;22.98;36.00;102181.44;21069670;28;20048;-66
2022/12/04 16:31:34;;;;;;;7.97;1.10;;;;;;;23.04;36.33;102172.00;21066139;28;20048;-63
2022/12/04 16:41:35;;;;;;;7.57;1.02;;;;;;;23.06;36.22;102147.44;21066839;28;20047;-61
2022/12/04 16:51:43;;;;;;;4.07;0.90;;;;;;;23.07;36.17;102152.75;21058934;28;20051;-63
2022/12/04 17:01:47;;;;;;;13.60;1.50;;;;;;;23.12;36.22;102134.38;21070175;28;20044;-62
2022/12/04 17:11:48;;;;;;;3.65;1.15;;;;;;;23.07;35.77;102126.78;21072376;28;20032;-64
2022/12/04 17:21:50;;;;;;;32.90;2.55;;;;;;;23.17;36.23;102132.44;21057755;28;20089;-60
2022/12/04 17:31:54;;;;;;;13.13;1.77;;;;;;;23.18;36.21;102122.13;21077459;28;20557;-62
2022/12/04 17:41:55;;;;;;;14.93;1.35;;;;;;;23.17;35.88;102132.44;21077863;28;20032;-61
2022/12/04 17:51:56;;;;;;;6.55;1.17;;;;;;;23.19;36.41;102135.00;21071073;28;20036;-61
2022/12/04 18:01:58;;;;;;;10.82;1.20;;;;;;;23.19;36.18;102143.38;21041897;28;20093;-61
2022/12/04 18:12:00;;;;;;;2.55;0.60;;;;;;;23.19;35.78;102135.84;21046641;28;20051;-62
2022/12/04 18:22:01;;;;;;;3.78;0.90;;;;;;;23.19;35.67;102124.66;21021984;28;20101;-62
2022/12/04 18:32:05;;;;;;;3.10;0.73;;;;;;;23.11;35.21;102118.72;21071492;28;20037;-62
2022/12/04 18:42:06;;;;;;;1.98;0.73;;;;;;;23.16;35.05;102108.44;21077183;28;20105;-62
2022/12/04 18:52:08;;;;;;;2.55;0.77;;;;;;;23.04;35.18;102083.50;21092236;28;20403;-66
2022/12/04 19:02:12;;;;;;;19.42;2.45;;;;;;;23.10;35.04;102092.78;21081705;28;20032;-64
2022/12/04 19:12:13;;;;;;;11.55;2.33;;;;;;;23.15;35.16;102092.81;21087998;28;20036;-61
2022/12/04 19:22:15;;;;;;;17.95;3.13;;;;;;;23.15;35.79;102101.19;21084257;28;20044;-58
2022/12/04 19:32:16;;;;;;;25.20;2.78;;;;;;;23.13;36.08;102108.97;21086842;28;20048;-59
2022/12/04 19:42:17;;;;;;;20.52;2.40;;;;;;;23.13;36.07;102108.97;21070174;28;20048;-61
2022/12/04 19:52:19;;;;;;;21.15;3.00;;;;;;;23.14;36.91;102104.22;21064760;28;20028;-60
2022/12/04 20:02:26;;;;;;;22.85;2.85;;;;;;;23.12;36.67;102128.78;21066386;28;20077;-59
2022/12/04 20:12:27;;;;;;;16.00;2.28;;;;;;;23.11;36.56;102133.53;21062167;28;20040;-60
2022/12/04 20:22:29;;;;;;;25.25;2.35;;;;;;;23.09;36.47;102124.56;21070129;28;20512;-60
2022/12/04 20:32:32;;;;;;;26.35;3.72;;;;;;;23.12;36.70;102129.63;21065037;28;20032;-58
2022/12/04 20:42:34;;;;;;;26.02;3.42;;;;;;;23.13;36.79;102122.94;21075426;28;20044;-58
2022/12/04 20:52:35;;;;;;;13.63;1.77;;;;;;;23.12;35.40;102128.78;21060234;28;20040;-58
2022/12/04 21:02:38;;;;;;;20.65;2.88;;;;;;;23.11;35.28;102125.16;21065459;28;20044;-57
2022/12/04 21:22:59;;;;;;;20.05;2.67;;;;;;;23.09;36.10;102174.81;21067030;28;20051;-58
2022/12/04 21:33:00;;;;;;;23.63;3.78;;;;;;;23.10;36.48;102173.75;21068777;28;20039;-58
2022/12/04 21:43:10;;;;;;;16.00;2.97;;;;;;;23.12;36.18;102174.28;21072565;28;20376;-60
2022/12/04 21:53:12;;;;;;;16.23;3.17;;;;;;;23.04;36.14;102161.66;21072233;28;20039;-59
2022/12/04 22:03:13;;;;;;;14.70;2.30;;;;;;;23.10;35.87;102165.34;21056510;28;20052;-58
2022/12/04 22:13:17;;;;;;;15.85;2.95;;;;;;;23.12;35.70;102156.72;21066756;28;20044;-58
2022/12/04 22:23:18;;;;;;;22.38;3.83;;;;;;;23.04;35.68;102144.06;21072373;28;20056;-58
2022/12/04 22:33:20;;;;;;;34.65;4.65;;;;;;;23.12;36.25;102134.38;21075794;28;20048;-58
2022/12/04 22:43:21;;;;;;;17.58;3.72;;;;;;;23.13;35.77;102155.59;21070704;28;20093;-60
2022/12/04 22:53:22;;;;;;;13.15;3.17;;;;;;;23.13;35.37;102164.81;21069870;28;20032;-59
2022/12/04 23:03:24;;;;;;;16.92;2.83;;;;;;;23.15;34.99;102157.03;21066701;28;20480;-60
2022/12/04 23:13:25;;;;;;;13.25;2.60;;;;;;;23.34;35.24;102175.03;21068920;28;20040;-61
2022/12/04 23:23:26;;;;;;;37.15;5.32;;;;;;;23.41;36.58;102183.19;21080846;28;20036;-60
2022/12/04 23:33:29;;;;;;;31.65;4.32;;;;;;;23.42;36.16;102139.34;21077676;28;20024;-60
2022/12/04 23:43:30;;;;;;;17.77;3.20;;;;;;;23.49;35.59;102151.13;21076321;28;20074;-59
2022/12/04 23:53:31;;;;;;;24.48;4.13;;;;;;;23.43;35.59;102157.78;21048501;28;20085;-60
